Time,TemperatureF,DewpointF,PressureIn,WindDirection,WindDirectionDegrees,WindSpeedMPH,WindSpeedGustMPH,Humidity,HourlyPrecipIn,Conditions,Clouds,dailyrainin,SolarRadiationWatts/m^2,SoftwareType,DateUTC
2013-01-31 00:03:00,55.0,52.0,-100.00,WSW,242,9.0,17.0,91,0.04,,,1.62,0.000000,,2013-01-31 05:03:00,
2013-01-31 00:42:00,52.0,48.0,-100.00,SW,219,9.0,21.0,85,0.01,,,1.63,0.000000,,2013-01-31 05:42:00,
2013-01-31 00:52:00,52.0,48.0,-100.00,SW,219,9.0,21.0,85,0.01,,,1.63,0.000000,,2013-01-31 05:52:00,
2013-01-31 01:01:00,52.0,48.0,-100.00,SW,219,9.0,21.0,85,0.01,,,1.63,0.000000,,2013-01-31 06:01:00,
2013-01-31 09:03:00,36.0,24.0,-100.00,West,268,9.0,19.0,61,0.00,,,1.62,19.000000,,2013-01-31 14:03:00,
2013-01-31 09:32:00,38.0,22.0,-100.00,West,267,8.0,20.0,52,0.00,,,1.62,62.000000,,2013-01-31 14:32:00,
2013-01-31 09:42:00,38.0,22.0,-100.00,West,267,8.0,20.0,52,0.00,,,1.62,62.000000,,2013-01-31 14:42:00,
2013-01-31 09:52:00,38.0,22.0,-100.00,West,267,8.0,20.0,52,0.00,,,1.62,62.000000,,2013-01-31 14:52:00,
2013-01-31 10:03:00,38.0,22.0,-100.00,West,267,8.0,20.0,52,0.00,,,1.62,62.000000,,2013-01-31 15:03:00,
2013-01-31 10:32:00,40.0,19.0,-100.00,WNW,301,5.0,18.0,43,0.00,,,1.61,496.000000,,2013-01-31 15:32:00,
2013-01-31 10:42:00,40.0,19.0,-100.00,WNW,301,5.0,18.0,43,0.00,,,1.61,496.000000,,2013-01-31 15:42:00,
2013-01-31 10:52:00,40.0,19.0,-100.00,WNW,301,5.0,18.0,43,0.00,,,1.61,496.000000,,2013-01-31 15:52:00,
2013-01-31 11:03:00,40.0,19.0,-100.00,WNW,301,5.0,18.0,43,0.00,,,1.61,496.000000,,2013-01-31 16:03:00,
2013-01-31 11:33:00,41.0,20.0,-100.00,West,263,6.0,13.0,43,0.00,,,1.61,548.000000,,2013-01-31 16:33:00,
2013-01-31 11:42:00,41.0,20.0,-100.00,West,263,6.0,13.0,43,0.00,,,1.61,548.000000,,2013-01-31 16:42:00,
2013-01-31 11:52:00,41.0,20.0,-100.00,West,263,6.0,13.0,43,0.00,,,1.61,548.000000,,2013-01-31 16:52:00,
2013-01-31 12:03:00,41.0,20.0,-100.00,West,263,6.0,13.0,43,0.00,,,1.61,548.000000,,2013-01-31 17:03:00,
2013-01-31 12:32:00,42.0,19.0,-100.00,WSW,251,10.0,18.0,40,0.00,,,1.61,693.000000,,2013-01-31 17:32:00,
2013-01-31 12:44:00,42.0,19.0,-100.00,WSW,251,10.0,18.0,40,0.00,,,1.61,693.000000,,2013-01-31 17:44:00,
2013-01-31 12:53:00,42.0,19.0,-100.00,WSW,251,10.0,18.0,40,0.00,,,1.61,693.000000,,2013-01-31 17:53:00,
2013-01-31 13:03:00,42.0,19.0,-100.00,WSW,251,10.0,18.0,40,0.00,,,1.61,693.000000,,2013-01-31 18:03:00,
2013-01-31 13:32:00,43.0,19.0,-100.00,West,265,10.0,19.0,38,0.00,,,1.61,742.000000,,2013-01-31 18:32:00,
2013-01-31 13:43:00,43.0,19.0,-100.00,West,265,10.0,19.0,38,0.00,,,1.61,742.000000,,2013-01-31 18:43:00,
2013-01-31 13:52:00,43.0,19.0,-100.00,West,265,10.0,19.0,38,0.00,,,1.61,742.000000,,2013-01-31 18:52:00,
2013-01-31 14:03:00,43.0,19.0,-100.00,West,265,10.0,19.0,38,0.00,,,1.61,742.000000,,2013-01-31 19:03:00,
2013-01-31 14:33:00,44.0,19.0,-100.00,West,265,13.0,23.0,36,0.00,,,1.61,744.000000,,2013-01-31 19:33:00,
2013-01-31 14:43:00,44.0,19.0,-100.00,West,265,13.0,23.0,36,0.00,,,1.61,744.000000,,2013-01-31 19:43:00,
2013-01-31 14:52:00,44.0,19.0,-100.00,West,265,13.0,23.0,36,0.00,,,1.61,744.000000,,2013-01-31 19:52:00,
2013-01-31 15:02:00,44.0,19.0,-100.00,West,265,13.0,23.0,36,0.00,,,1.61,744.000000,,2013-01-31 20:02:00,
2013-01-31 15:22:00,43.0,17.0,-100.00,West,277,15.0,26.0,34,0.00,,,1.61,608.000000,,2013-01-31 20:22:00,
2013-01-31 15:32:00,43.0,17.0,-100.00,West,277,15.0,26.0,34,0.00,,,1.61,608.000000,,2013-01-31 20:32:00,
2013-01-31 15:42:00,43.0,17.0,-100.00,West,277,15.0,26.0,34,0.00,,,1.61,608.000000,,2013-01-31 20:42:00,
2013-01-31 15:52:00,43.0,17.0,-100.00,West,277,15.0,26.0,34,0.00,,,1.61,608.000000,,2013-01-31 20:52:00,
2013-01-31 16:02:00,43.0,17.0,-100.00,West,277,15.0,26.0,34,0.00,,,1.61,608.000000,,2013-01-31 21:02:00,
2013-01-31 16:32:00,42.0,16.0,-100.00,West,260,15.0,27.0,35,0.00,,,1.58,428.000000,,2013-01-31 21:32:00,
2013-01-31 16:42:00,42.0,16.0,-100.00,West,260,15.0,27.0,35,0.00,,,1.58,428.000000,,2013-01-31 21:42:00,
2013-01-31 16:52:00,42.0,16.0,-100.00,West,260,15.0,27.0,35,0.00,,,1.58,428.000000,,2013-01-31 21:52:00,
2013-01-31 17:03:00,42.0,16.0,-100.00,West,260,15.0,27.0,35,0.00,,,1.58,428.000000,,2013-01-31 22:03:00,
2013-01-31 17:33:00,42.0,17.0,-100.00,WNW,291,10.0,22.0,36,0.00,,,1.54,250.000000,,2013-01-31 22:33:00,
2013-01-31 17:42:00,42.0,17.0,-100.00,WNW,291,10.0,22.0,36,0.00,,,1.54,250.000000,,2013-01-31 22:42:00,
2013-01-31 17:52:00,42.0,17.0,-100.00,WNW,291,10.0,22.0,36,0.00,,,1.54,250.000000,,2013-01-31 22:52:00,
2013-01-31 18:03:00,42.0,17.0,-100.00,WNW,291,10.0,22.0,36,0.00,,,1.54,250.000000,,2013-01-31 23:03:00,
2013-01-31 18:32:00,39.0,16.0,-100.00,WSW,251,8.0,16.0,39,0.00,,,1.01,50.000000,,2013-01-31 23:32:00,
2013-01-31 18:42:00,39.0,16.0,-100.00,WSW,251,8.0,16.0,39,0.00,,,1.01,50.000000,,2013-01-31 23:42:00,
2013-01-31 18:52:00,39.0,16.0,-100.00,WSW,251,8.0,16.0,39,0.00,,,1.01,50.000000,,2013-01-31 23:52:00,
2013-01-31 19:02:00,39.0,16.0,-100.00,WSW,251,8.0,16.0,39,0.00,,,1.01,50.000000,,2013-02-01 00:02:00,
2013-01-31 19:22:00,37.0,17.0,-100.00,West,264,4.0,11.0,43,0.00,,,0.67,0.000000,,2013-02-01 00:22:00,
2013-01-31 19:32:00,37.0,17.0,-100.00,West,264,4.0,11.0,43,0.00,,,0.67,0.000000,,2013-02-01 00:32:00,
2013-01-31 19:42:00,37.0,17.0,-100.00,West,264,4.0,11.0,43,0.00,,,0.67,0.000000,,2013-02-01 00:42:00,
2013-01-31 19:52:00,37.0,17.0,-100.00,West,264,4.0,11.0,43,0.00,,,0.67,0.000000,,2013-02-01 00:52:00,
2013-01-31 20:01:00,37.0,17.0,-100.00,West,264,4.0,11.0,43,0.00,,,0.67,0.000000,,2013-02-01 01:01:00,
2013-01-31 20:32:00,36.0,16.0,-100.00,West,262,4.0,9.0,44,0.00,,,0.27,0.000000,,2013-02-01 01:32:00,
2013-01-31 20:42:00,36.0,16.0,-100.00,West,262,4.0,9.0,44,0.00,,,0.27,0.000000,,2013-02-01 01:42:00,
2013-01-31 20:52:00,36.0,16.0,-100.00,West,262,4.0,9.0,44,0.00,,,0.27,0.000000,,2013-02-01 01:52:00,
2013-01-31 21:02:00,36.0,16.0,-100.00,West,262,4.0,9.0,44,0.00,,,0.27,0.000000,,2013-02-01 02:02:00,
2013-01-31 21:32:00,37.0,18.0,-100.00,WSW,245,5.0,9.0,46,0.00,,,0.18,0.000000,,2013-02-01 02:32:00,
2013-01-31 21:42:00,37.0,18.0,-100.00,WSW,245,5.0,9.0,46,0.00,,,0.18,0.000000,,2013-02-01 02:42:00,
2013-01-31 21:52:00,37.0,18.0,-100.00,WSW,245,5.0,9.0,46,0.00,,,0.18,0.000000,,2013-02-01 02:52:00,
2013-01-31 22:02:00,37.0,18.0,-100.00,WSW,245,5.0,9.0,46,0.00,,,0.18,0.000000,,2013-02-01 03:02:00,
2013-01-31 22:33:00,37.0,19.0,-100.00,SW,234,5.0,13.0,47,0.00,,,0.08,0.000000,,2013-02-01 03:33:00,
2013-01-31 22:42:00,37.0,19.0,-100.00,SW,234,5.0,13.0,47,0.00,,,0.08,0.000000,,2013-02-01 03:42:00,
2013-01-31 22:52:00,37.0,19.0,-100.00,SW,234,5.0,13.0,47,0.00,,,0.08,0.000000,,2013-02-01 03:52:00,
2013-01-31 23:02:00,37.0,19.0,-100.00,SW,234,5.0,13.0,47,0.00,,,0.08,0.000000,,2013-02-01 04:02:00,
2013-01-31 23:32:00,34.0,19.0,-100.00,South,183,3.0,8.0,53,0.00,,,0.04,0.000000,,2013-02-01 04:32:00,
2013-01-31 23:42:00,34.0,19.0,-100.00,South,183,3.0,8.0,53,0.00,,,0.04,0.000000,,2013-02-01 04:42:00,
2013-01-31 23:52:00,34.0,19.0,-100.00,South,183,3.0,8.0,53,0.00,,,0.04,0.000000,,2013-02-01 04:52:00,